createdAt,value
2023-03-11T00:01:48.135Z,16.72
2023-03-11T00:04:14.546Z,16.70
2023-03-11T00:06:40.858Z,16.70
2023-03-11T00:09:07.188Z,16.68
2023-03-11T00:11:33.547Z,16.65
2023-03-11T00:13:59.867Z,16.65
2023-03-11T00:16:26.256Z,16.64
2023-03-11T00:18:52.750Z,16.66
2023-03-11T00:21:19.087Z,16.64
2023-03-11T00:23:45.403Z,16.62
2023-03-11T00:26:11.887Z,16.64
2023-03-11T00:28:38.224Z,16.62
2023-03-11T00:31:04.575Z,16.58
2023-03-11T00:33:30.947Z,16.56
2023-03-11T00:35:57.305Z,16.55
2023-03-11T00:38:23.665Z,16.52
2023-03-11T00:40:50.110Z,16.50
2023-03-11T00:43:16.469Z,16.49
2023-03-11T00:45:42.798Z,16.46
2023-03-11T00:48:09.155Z,16.43
2023-03-11T00:50:35.493Z,16.42
2023-03-11T00:53:01.812Z,16.38
2023-03-11T00:55:28.186Z,16.36
2023-03-11T00:57:54.788Z,16.32
2023-03-11T01:00:23.078Z,16.33
2023-03-11T01:02:49.498Z,16.31
2023-03-11T01:05:15.809Z,16.27
2023-03-11T01:07:42.143Z,16.26
2023-03-11T01:10:08.560Z,16.23
2023-03-11T01:12:34.939Z,16.22
2023-03-11T01:15:01.557Z,16.18
2023-03-11T01:17:28.135Z,16.14
2023-03-11T01:19:54.441Z,16.15
2023-03-11T01:22:21.570Z,16.11
2023-03-11T01:24:47.934Z,16.10
2023-03-11T01:27:14.257Z,16.09
2023-03-11T01:29:40.583Z,16.04
2023-03-11T01:32:06.976Z,16.04
2023-03-11T01:34:33.313Z,16.05
2023-03-11T01:36:59.647Z,16.03
2023-03-11T01:39:26.012Z,16.02
2023-03-11T01:41:52.346Z,15.99
2023-03-11T01:44:18.682Z,15.97
2023-03-11T01:46:45.099Z,15.93
2023-03-11T01:49:11.525Z,15.92
2023-03-11T01:51:38.045Z,15.90
2023-03-11T01:54:05.525Z,15.90
2023-03-11T01:56:31.983Z,15.88
2023-03-11T01:58:58.693Z,15.89
2023-03-11T02:01:25.681Z,15.91
2023-03-11T02:03:52.141Z,16.02
2023-03-11T02:06:18.466Z,16.05
2023-03-11T02:08:44.961Z,16.04
2023-03-11T02:11:12.353Z,16.04
2023-03-11T02:13:38.693Z,16.14
2023-03-11T02:16:05.248Z,16.23
2023-03-11T02:18:31.635Z,16.22
2023-03-11T02:20:57.954Z,16.19
2023-03-11T02:23:24.336Z,16.14
2023-03-11T02:25:50.802Z,16.07
2023-03-11T02:28:17.163Z,16.01
2023-03-11T02:30:43.541Z,16.07
2023-03-11T02:33:09.948Z,16.01
2023-03-11T02:35:36.314Z,15.97
2023-03-11T02:38:02.710Z,15.95
2023-03-11T02:40:29.841Z,15.93
2023-03-11T02:42:56.356Z,15.91
2023-03-11T02:45:22.918Z,15.89
2023-03-11T02:47:49.383Z,15.85
2023-03-11T02:50:15.778Z,15.87
2023-03-11T02:52:44.043Z,15.80
2023-03-11T02:55:10.348Z,15.76
2023-03-11T02:57:36.741Z,15.76
2023-03-11T03:00:03.266Z,15.72
2023-03-11T03:02:30.009Z,15.71
2023-03-11T03:04:56.489Z,15.70
2023-03-11T03:07:23.162Z,15.67
2023-03-11T03:09:49.480Z,15.66
2023-03-11T03:12:15.833Z,15.60
2023-03-11T03:14:42.301Z,15.55
2023-03-11T03:17:09.797Z,15.51
2023-03-11T03:19:36.169Z,15.44
2023-03-11T03:22:02.770Z,15.42
2023-03-11T03:24:29.166Z,15.39
2023-03-11T03:26:55.588Z,15.38
2023-03-11T03:29:21.987Z,15.36
2023-03-11T03:31:49.201Z,15.34
2023-03-11T03:34:15.587Z,15.32
2023-03-11T03:36:42.009Z,15.29
2023-03-11T03:39:08.521Z,15.28
2023-03-11T03:41:36.604Z,15.25
2023-03-11T03:44:04.350Z,15.23
2023-03-11T03:46:31.850Z,15.22
2023-03-11T03:48:59.106Z,15.21
2023-03-11T03:51:26.768Z,15.21
2023-03-11T03:54:13.344Z,15.17
2023-03-11T03:56:39.743Z,15.16
2023-03-11T03:59:06.410Z,15.15
2023-03-11T04:01:38.528Z,15.14
2023-03-11T04:04:04.947Z,15.11
2023-03-11T04:06:31.363Z,15.08
2023-03-11T04:09:02.120Z,15.08
2023-03-11T04:11:31.984Z,15.06
2023-03-11T04:13:58.945Z,15.04
2023-03-11T04:16:25.540Z,15.01
2023-03-11T04:18:58.100Z,14.99
2023-03-11T04:21:24.500Z,14.99
2023-03-11T04:23:51.059Z,14.97
2023-03-11T04:26:20.922Z,14.95
2023-03-11T04:28:47.296Z,14.93
2023-03-11T04:31:14.389Z,14.90
2023-03-11T04:33:41.092Z,14.87
2023-03-11T04:36:09.340Z,14.85
2023-03-11T04:38:37.111Z,14.83
2023-03-11T04:41:04.383Z,14.80
2023-03-11T04:43:30.748Z,14.77
2023-03-11T04:45:57.199Z,14.74
2023-03-11T04:48:23.724Z,14.69
2023-03-11T04:50:50.053Z,14.67
2023-03-11T04:53:16.363Z,14.63
2023-03-11T04:55:42.743Z,14.60
2023-03-11T04:58:09.090Z,14.56
2023-03-11T05:00:37.800Z,14.52
2023-03-11T05:03:08.548Z,14.48
2023-03-11T05:05:35.330Z,14.44
2023-03-11T05:08:01.802Z,14.41
2023-03-11T05:10:31.892Z,14.36
2023-03-11T05:13:00.668Z,14.32
2023-03-11T05:15:31.728Z,14.29
2023-03-11T05:18:00.922Z,14.26
2023-03-11T05:20:28.388Z,14.22
2023-03-11T05:22:54.932Z,14.19
2023-03-11T05:25:21.269Z,14.15
2023-03-11T05:27:48.418Z,14.11
2023-03-11T05:30:16.250Z,14.07
2023-03-11T05:32:44.176Z,14.01
2023-03-11T05:35:11.570Z,13.95
2023-03-11T05:37:38.129Z,13.93
2023-03-11T05:40:05.043Z,13.87
2023-03-11T05:42:31.372Z,13.81
2023-03-11T05:44:58.178Z,13.80
2023-03-11T05:47:25.388Z,13.75
2023-03-11T05:49:52.241Z,13.74
2023-03-11T05:52:19.662Z,13.71
2023-03-11T05:54:46.747Z,13.68
2023-03-11T05:57:13.098Z,13.63
2023-03-11T05:59:39.631Z,13.63
2023-03-11T06:02:05.962Z,13.63
2023-03-11T06:04:32.427Z,13.59
2023-03-11T06:07:00.739Z,13.58
2023-03-11T06:09:29.838Z,13.57
2023-03-11T06:11:56.257Z,13.56
2023-03-11T06:14:26.595Z,13.52
2023-03-11T06:16:53.605Z,13.45
2023-03-11T06:19:20.493Z,13.46
2023-03-11T06:21:49.674Z,13.44
2023-03-11T06:24:17.078Z,13.41
2023-03-11T06:26:43.896Z,13.41
2023-03-11T06:29:12.743Z,13.40
2023-03-11T06:31:39.565Z,13.39
2023-03-11T06:34:08.520Z,13.36
2023-03-11T06:36:35.018Z,13.33
2023-03-11T06:39:01.332Z,13.31
2023-03-11T06:41:28.564Z,13.29
2023-03-11T06:43:56.044Z,13.22
2023-03-11T06:46:22.357Z,13.20
2023-03-11T06:48:50.426Z,13.15
2023-03-11T06:51:16.811Z,13.23
2023-03-11T06:53:43.229Z,13.24
2023-03-11T06:56:10.346Z,13.11
2023-03-11T06:58:43.102Z,13.17
2023-03-11T07:01:11.746Z,13.11
2023-03-11T07:03:38.512Z,13.13
2023-03-11T07:06:06.716Z,13.10
2023-03-11T07:08:33.634Z,13.00
2023-03-11T07:11:00.111Z,12.95
2023-03-11T07:13:28.372Z,12.91
2023-03-11T07:15:54.816Z,12.88
2023-03-11T07:18:21.192Z,12.85
2023-03-11T07:20:47.584Z,12.83
2023-03-11T07:23:14.521Z,12.80
2023-03-11T07:25:40.913Z,12.77
2023-03-11T07:28:07.270Z,12.81
2023-03-11T07:30:33.580Z,12.79
2023-03-11T07:32:59.964Z,12.75
2023-03-11T07:35:26.364Z,12.64
2023-03-11T07:37:52.724Z,12.60
2023-03-11T07:40:19.050Z,12.56
2023-03-11T07:42:45.412Z,12.52
2023-03-11T07:45:11.734Z,12.50
2023-03-11T07:47:38.107Z,12.44
2023-03-11T07:50:04.493Z,12.39
2023-03-11T07:52:30.810Z,12.46
2023-03-11T07:54:57.123Z,12.37
2023-03-11T07:57:23.513Z,12.31
2023-03-11T07:59:49.852Z,12.28
2023-03-11T08:02:16.210Z,12.26
2023-03-11T08:04:42.609Z,12.23
2023-03-11T08:07:08.938Z,12.21
2023-03-11T08:09:35.258Z,12.17
2023-03-11T08:12:01.951Z,12.14
2023-03-11T08:14:28.399Z,12.13
2023-03-11T08:16:54.717Z,12.12
2023-03-11T08:19:21.078Z,12.10
2023-03-11T08:21:47.412Z,12.10
2023-03-11T08:24:13.732Z,12.17
2023-03-11T08:26:40.118Z,12.16
2023-03-11T08:29:06.445Z,12.15
2023-03-11T08:31:32.868Z,12.13
2023-03-11T08:33:59.270Z,12.07
2023-03-11T08:36:25.635Z,12.05
2023-03-11T08:38:52.035Z,12.03
2023-03-11T08:41:18.475Z,11.99
2023-03-11T08:43:44.782Z,11.99
2023-03-11T08:46:11.304Z,11.95
2023-03-11T08:48:37.672Z,11.93
2023-03-11T08:51:04.013Z,11.91
2023-03-11T08:53:30.346Z,11.90
2023-03-11T08:55:56.739Z,11.89
2023-03-11T08:58:23.048Z,11.87
2023-03-11T09:00:49.373Z,11.83
2023-03-11T09:03:15.757Z,11.82
2023-03-11T09:05:42.110Z,11.81
2023-03-11T09:08:08.483Z,11.79
2023-03-11T09:10:34.858Z,11.76
2023-03-11T09:13:01.191Z,11.74
2023-03-11T09:15:27.533Z,11.72
2023-03-11T09:17:53.918Z,11.70
2023-03-11T09:20:20.237Z,11.66
2023-03-11T09:22:46.546Z,11.65
2023-03-11T09:25:12.920Z,11.64
2023-03-11T09:27:39.289Z,11.61
2023-03-11T09:30:05.588Z,11.59
2023-03-11T09:32:32.033Z,11.56
2023-03-11T09:34:58.448Z,11.55
2023-03-11T09:37:24.771Z,11.51
2023-03-11T09:39:51.147Z,11.49
2023-03-11T09:42:17.461Z,11.49
2023-03-11T09:44:43.976Z,11.48
2023-03-11T09:47:10.356Z,11.44
2023-03-11T09:49:36.668Z,11.43
2023-03-11T09:52:02.981Z,11.41
2023-03-11T09:54:29.404Z,11.39
2023-03-11T09:56:55.732Z,11.36
2023-03-11T09:59:22.076Z,11.35
2023-03-11T10:01:48.499Z,11.35
2023-03-11T10:04:14.886Z,11.34
2023-03-11T10:06:41.212Z,11.32
2023-03-11T10:09:07.596Z,11.30
2023-03-11T10:11:35.051Z,11.29
2023-03-11T10:14:01.378Z,11.28
2023-03-11T10:16:27.799Z,11.26
2023-03-11T10:18:54.224Z,11.25
2023-03-11T10:21:20.552Z,11.21
2023-03-11T10:23:46.941Z,11.20
2023-03-11T10:26:13.275Z,11.15
2023-03-11T10:28:39.629Z,11.14
2023-03-11T10:31:05.977Z,11.11
2023-03-11T10:33:32.292Z,11.11
2023-03-11T10:35:58.668Z,11.10
2023-03-11T10:38:25.126Z,11.12
2023-03-11T10:40:51.469Z,11.13
2023-03-11T10:43:17.798Z,11.13
2023-03-11T10:45:44.186Z,11.14
2023-03-11T10:48:10.545Z,11.13
2023-03-11T10:50:36.953Z,11.11
2023-03-11T10:53:03.320Z,11.09
2023-03-11T10:55:29.644Z,11.07
2023-03-11T10:57:55.961Z,11.08
2023-03-11T11:00:22.322Z,11.05
2023-03-11T11:02:48.647Z,11.03
2023-03-11T11:05:15.018Z,11.04
2023-03-11T11:07:41.387Z,11.04
2023-03-11T11:10:07.717Z,11.03
2023-03-11T11:12:34.049Z,11.03
2023-03-11T11:15:00.428Z,11.02
2023-03-11T11:17:26.775Z,11.01
2023-03-11T11:19:53.120Z,10.99
2023-03-11T11:22:19.498Z,10.95
2023-03-11T11:24:45.813Z,10.93
2023-03-11T11:27:12.124Z,10.93
2023-03-11T11:29:38.553Z,10.92
2023-03-11T11:32:04.888Z,10.91
2023-03-11T11:34:31.239Z,10.90
2023-03-11T11:36:57.623Z,10.90
2023-03-11T11:39:23.938Z,10.87
2023-03-11T11:41:50.238Z,10.85
2023-03-11T11:44:16.568Z,10.84
2023-03-11T11:46:42.910Z,10.82
2023-03-11T11:49:09.216Z,10.77
2023-03-11T11:51:35.594Z,10.75
2023-03-11T11:54:01.941Z,10.75
2023-03-11T11:56:28.281Z,10.72
2023-03-11T11:58:54.723Z,10.69
2023-03-11T12:01:21.075Z,10.69
2023-03-11T12:03:47.442Z,10.67
2023-03-11T12:06:13.920Z,10.66
2023-03-11T12:08:40.314Z,10.64
2023-03-11T12:11:06.648Z,10.60
2023-03-11T12:13:33.007Z,10.58
2023-03-11T12:15:59.461Z,10.56
2023-03-11T12:18:25.807Z,10.52
2023-03-11T12:20:52.159Z,10.50
2023-03-11T12:23:18.467Z,10.46
2023-03-11T12:25:44.785Z,10.44
2023-03-11T12:28:11.167Z,10.42
2023-03-11T12:30:37.488Z,10.40
2023-03-11T12:33:03.798Z,10.38
2023-03-11T12:35:30.241Z,10.37
2023-03-11T12:37:56.678Z,10.36
2023-03-11T12:40:22.999Z,10.33
2023-03-11T12:42:49.372Z,10.33
2023-03-11T12:45:15.710Z,10.32
2023-03-11T12:47:42.058Z,10.28
2023-03-11T12:50:08.457Z,10.29
2023-03-11T12:52:34.771Z,10.26
2023-03-11T12:55:01.108Z,10.24
2023-03-11T12:57:27.563Z,10.18
2023-03-11T12:59:53.880Z,10.16
2023-03-11T13:02:20.192Z,10.15
2023-03-11T13:04:46.612Z,10.14
2023-03-11T13:07:12.933Z,10.15
2023-03-11T13:09:39.252Z,10.15
2023-03-11T13:12:05.656Z,10.14
2023-03-11T13:14:32.029Z,10.14
2023-03-11T13:16:58.359Z,10.14
2023-03-11T13:19:24.788Z,10.12
2023-03-11T13:21:51.114Z,10.11
2023-03-11T13:24:17.416Z,10.11
2023-03-11T13:26:43.791Z,10.10
2023-03-11T13:29:10.096Z,10.10
2023-03-11T13:31:36.456Z,10.10
2023-03-11T13:34:02.818Z,10.11
2023-03-11T13:36:29.143Z,10.08
2023-03-11T13:38:55.469Z,10.07
2023-03-11T13:41:21.837Z,10.05
2023-03-11T13:43:48.209Z,10.03
2023-03-11T13:46:14.608Z,10.01
2023-03-11T13:48:41.002Z,10.02
2023-03-11T13:51:07.328Z,10.01
2023-03-11T13:53:33.643Z,10.01
2023-03-11T13:56:00.026Z,9.99
2023-03-11T13:58:26.379Z,9.98
2023-03-11T14:00:52.734Z,9.98
2023-03-11T14:03:19.144Z,9.98
2023-03-11T14:05:45.486Z,9.97
2023-03-11T14:08:11.800Z,9.97
2023-03-11T14:10:38.157Z,9.95
2023-03-11T14:13:04.472Z,9.94
2023-03-11T14:15:30.790Z,9.93
2023-03-11T14:17:57.152Z,9.92
2023-03-11T14:20:23.564Z,9.90
2023-03-11T14:22:49.930Z,9.88
2023-03-11T14:25:16.347Z,9.88
2023-03-11T14:27:42.676Z,9.86
2023-03-11T14:30:09.002Z,9.86
2023-03-11T14:32:35.403Z,9.87
2023-03-11T14:35:01.863Z,9.87
2023-03-11T14:37:28.200Z,9.85
2023-03-11T14:39:54.565Z,9.83
2023-03-11T14:42:20.905Z,9.83
2023-03-11T14:44:47.246Z,9.82
2023-03-11T14:47:13.648Z,9.80
2023-03-11T14:49:40.021Z,9.79
2023-03-11T14:52:06.359Z,9.79
2023-03-11T14:54:32.754Z,9.79
2023-03-11T14:56:59.063Z,9.75
2023-03-11T14:59:25.403Z,9.73
2023-03-11T15:01:51.764Z,9.72
2023-03-11T15:04:18.066Z,9.71
2023-03-11T15:06:44.382Z,9.70
2023-03-11T15:09:10.773Z,9.69
2023-03-11T15:11:37.138Z,9.65
2023-03-11T15:14:03.460Z,9.64
2023-03-11T15:16:29.912Z,9.62
2023-03-11T15:18:56.280Z,9.62
2023-03-11T15:21:22.598Z,9.60
2023-03-11T15:23:49.007Z,9.59
2023-03-11T15:26:15.334Z,9.55
2023-03-11T15:28:41.636Z,9.53
2023-03-11T15:31:08.107Z,9.51
2023-03-11T15:33:34.470Z,9.48
2023-03-11T15:36:00.813Z,9.47
2023-03-11T15:38:27.187Z,9.46
2023-03-11T15:40:53.504Z,9.44
2023-03-11T15:43:19.829Z,9.43
2023-03-11T15:45:46.274Z,9.44
2023-03-11T15:48:12.703Z,9.45
2023-03-11T15:50:52.452Z,9.45
2023-03-11T15:53:19.532Z,9.44
2023-03-11T15:55:45.855Z,9.44
2023-03-11T15:58:12.163Z,9.42
2023-03-11T16:00:38.524Z,9.41
2023-03-11T16:03:04.836Z,9.42
2023-03-11T16:05:31.214Z,9.40
2023-03-11T16:07:57.625Z,9.38
2023-03-11T16:10:23.931Z,9.38
2023-03-11T16:12:50.256Z,9.36
2023-03-11T16:15:16.615Z,9.36
2023-03-11T16:17:49.645Z,9.36
2023-03-11T16:20:16.301Z,9.36
2023-03-11T16:22:42.688Z,9.34
2023-03-11T16:25:09.004Z,9.33
2023-03-11T16:27:35.332Z,9.33
2023-03-11T16:30:01.696Z,9.32
2023-03-11T16:32:28.067Z,9.29
2023-03-11T16:34:54.406Z,9.25
2023-03-11T16:37:20.850Z,9.21
2023-03-11T16:39:47.193Z,9.20
2023-03-11T16:42:13.522Z,9.21
2023-03-11T16:44:39.873Z,9.17
2023-03-11T16:47:06.229Z,9.17
2023-03-11T16:49:32.524Z,9.16
2023-03-11T16:51:58.960Z,9.14
2023-03-11T16:54:25.305Z,9.10
2023-03-11T16:56:51.631Z,9.09
2023-03-11T16:59:18.000Z,9.07
2023-03-11T17:01:44.358Z,9.07
2023-03-11T17:04:10.723Z,9.04
2023-03-11T17:06:37.092Z,9.02
2023-03-11T17:09:04.774Z,9.01
2023-03-11T17:11:31.096Z,9.00
2023-03-11T17:14:10.135Z,8.99
2023-03-11T17:16:42.099Z,8.96
2023-03-11T17:19:08.460Z,8.91
2023-03-11T17:21:34.757Z,8.89
2023-03-11T17:24:01.089Z,8.88
2023-03-11T17:26:27.463Z,8.86
2023-03-11T17:28:53.780Z,8.86
2023-03-11T17:31:20.164Z,8.84
2023-03-11T17:33:46.571Z,8.82
2023-03-11T17:36:12.943Z,8.81
2023-03-11T17:38:39.327Z,8.78
2023-03-11T17:41:05.722Z,8.78
2023-03-11T17:43:32.041Z,8.78
2023-03-11T17:45:58.369Z,8.76
2023-03-11T17:48:24.735Z,8.74
2023-03-11T17:50:51.044Z,8.74
2023-03-11T17:53:17.346Z,8.71
2023-03-11T17:55:43.696Z,8.70
2023-03-11T17:58:10.006Z,8.66
2023-03-11T18:00:36.330Z,8.65
2023-03-11T18:03:02.709Z,8.63
2023-03-11T18:05:29.007Z,8.63
2023-03-11T18:07:55.315Z,8.60
2023-03-11T18:10:21.685Z,8.58
2023-03-11T18:12:48.008Z,8.57
2023-03-11T18:15:14.398Z,8.54
2023-03-11T18:17:40.803Z,8.53
2023-03-11T18:20:07.145Z,8.52
2023-03-11T18:22:35.248Z,8.52
2023-03-11T18:25:01.895Z,8.51
2023-03-11T18:27:28.228Z,8.48
2023-03-11T18:29:54.546Z,8.45
2023-03-11T18:32:21.043Z,8.45
2023-03-11T18:34:47.405Z,8.45
2023-03-11T18:37:13.720Z,8.43
2023-03-11T18:39:40.086Z,8.42
2023-03-11T18:42:06.406Z,8.42
2023-03-11T18:44:33.618Z,8.42
2023-03-11T18:47:00.731Z,8.40
2023-03-11T18:49:27.054Z,8.37
2023-03-11T18:51:53.382Z,8.35
2023-03-11T18:54:19.740Z,8.35
2023-03-11T18:56:46.061Z,8.32
2023-03-11T18:59:12.371Z,8.29
2023-03-11T19:01:38.983Z,8.28
2023-03-11T19:04:05.303Z,8.28
2023-03-11T19:06:31.634Z,8.28
2023-03-11T19:08:58.004Z,8.29
2023-03-11T19:11:24.336Z,8.27
2023-03-11T19:13:50.659Z,8.25
2023-03-11T19:16:17.190Z,8.25
2023-03-11T19:18:43.621Z,8.22
2023-03-11T19:21:09.966Z,8.19
2023-03-11T19:23:36.348Z,8.18
2023-03-11T19:26:03.700Z,8.19
2023-03-11T19:28:30.193Z,8.19
2023-03-11T19:30:56.702Z,8.17
2023-03-11T19:33:23.063Z,8.14
2023-03-11T19:35:49.442Z,8.12
2023-03-11T19:38:15.809Z,8.10
2023-03-11T19:40:42.112Z,8.07
2023-03-11T19:43:08.430Z,8.08
2023-03-11T19:45:34.797Z,8.08
2023-03-11T19:48:01.139Z,8.06
2023-03-11T19:50:27.506Z,8.04
2023-03-11T19:52:53.874Z,8.02
2023-03-11T19:55:20.197Z,8.01
2023-03-11T19:57:46.508Z,8.00
2023-03-11T20:00:12.950Z,7.96
2023-03-11T20:02:39.329Z,7.95
2023-03-11T20:05:05.745Z,7.92
2023-03-11T20:07:32.098Z,7.92
2023-03-11T20:09:58.431Z,7.89
2023-03-11T20:12:24.807Z,7.86
2023-03-11T20:14:51.241Z,7.82
2023-03-11T20:17:17.571Z,7.80
2023-03-11T20:19:43.926Z,7.77
2023-03-11T20:22:10.305Z,7.74
2023-03-11T20:24:36.712Z,7.74
2023-03-11T20:27:03.054Z,7.73
2023-03-11T20:29:29.493Z,7.72
2023-03-11T20:31:55.947Z,7.70
2023-03-11T20:34:22.334Z,7.67
2023-03-11T20:36:48.708Z,7.66
2023-03-11T20:39:15.038Z,7.64
2023-03-11T20:41:41.372Z,7.63
2023-03-11T20:44:07.885Z,7.62
2023-03-11T20:46:34.359Z,7.60
2023-03-11T20:49:00.835Z,7.58
2023-03-11T20:51:27.284Z,7.55
2023-03-11T20:53:53.600Z,7.55
2023-03-11T20:56:19.946Z,7.53
2023-03-11T20:58:46.434Z,7.53
2023-03-11T21:01:12.817Z,7.51
2023-03-11T21:03:39.248Z,7.47
2023-03-11T21:06:05.798Z,7.46
2023-03-11T21:08:32.228Z,7.45
2023-03-11T21:10:58.614Z,7.45
2023-03-11T21:13:24.982Z,7.44
2023-03-11T21:15:51.395Z,7.45
2023-03-11T21:18:17.735Z,7.45
2023-03-11T21:20:44.166Z,7.45
2023-03-11T21:23:10.560Z,7.46
2023-03-11T21:25:36.911Z,7.45
2023-03-11T21:28:03.284Z,7.47
2023-03-11T21:30:29.599Z,7.46
2023-03-11T21:32:55.979Z,7.45
2023-03-11T21:35:22.701Z,7.43
2023-03-11T21:37:49.060Z,7.42
2023-03-11T21:40:15.462Z,7.42
2023-03-11T21:42:41.881Z,7.42
2023-03-11T21:45:08.205Z,7.42
2023-03-11T21:47:34.513Z,7.40
2023-03-11T21:50:01.020Z,7.41
2023-03-11T21:52:27.521Z,7.43
2023-03-11T21:54:53.975Z,7.41
2023-03-11T21:57:20.561Z,7.37
2023-03-11T21:59:46.899Z,7.34
2023-03-11T22:02:13.412Z,7.37
2023-03-11T22:04:39.961Z,7.35
2023-03-11T22:07:06.433Z,7.33
2023-03-11T22:09:32.917Z,7.34
2023-03-11T22:11:59.350Z,7.32
2023-03-11T22:14:25.669Z,7.31
2023-03-11T22:16:52.203Z,7.32
2023-03-11T22:19:18.633Z,7.31
2023-03-11T22:21:44.947Z,7.31
2023-03-11T22:24:11.280Z,7.38
2023-03-11T22:26:37.664Z,7.41
2023-03-11T22:29:04.486Z,7.42
2023-03-11T22:31:31.085Z,7.42
2023-03-11T22:33:57.486Z,7.41
2023-03-11T22:36:23.809Z,7.39
2023-03-11T22:38:50.146Z,7.31
2023-03-11T22:41:16.496Z,7.31
2023-03-11T22:43:42.826Z,7.28
2023-03-11T22:46:09.187Z,7.25
2023-03-11T22:48:35.596Z,7.25
2023-03-11T22:51:01.906Z,7.24
2023-03-11T22:53:28.223Z,7.24
2023-03-11T22:55:54.573Z,7.24
2023-03-11T22:58:20.894Z,7.24
2023-03-11T23:00:47.234Z,7.22
2023-03-11T23:03:13.682Z,7.19
2023-03-11T23:05:40.059Z,7.15
2023-03-11T23:08:06.501Z,7.15
2023-03-11T23:10:32.881Z,7.14
2023-03-11T23:12:59.183Z,6.97
2023-03-11T23:15:25.525Z,7.12
2023-03-11T23:17:51.874Z,7.10
2023-03-11T23:20:18.193Z,7.12
2023-03-11T23:22:44.578Z,7.06
2023-03-11T23:25:10.913Z,7.06
2023-03-11T23:27:37.208Z,7.02
2023-03-11T23:30:03.546Z,7.02
2023-03-11T23:32:29.933Z,7.01
2023-03-11T23:34:56.266Z,7.00
2023-03-11T23:37:22.650Z,6.99
2023-03-11T23:39:49.008Z,6.98
2023-03-11T23:42:25.372Z,7.10
2023-03-11T23:44:52.642Z,7.13
2023-03-11T23:47:19.003Z,7.11
2023-03-11T23:49:45.312Z,6.98
2023-03-11T23:52:11.688Z,7.02
2023-03-11T23:54:38.006Z,6.95
2023-03-11T23:57:04.326Z,6.93
2023-03-11T23:59:30.706Z,6.90
